sensor_id;sensor_type;location;lat;lon;timestamp;P1;durP1;ratioP1;P2;durP2;ratioP2
68614;SDS011;55593;51.994;5.882;2022-12-07T00:00:07;17.50;;;11.63;;
68614;SDS011;55593;51.994;5.882;2022-12-07T00:02:37;18.02;;;11.18;;
68614;SDS011;55593;51.994;5.882;2022-12-07T00:05:09;16.65;;;11.18;;
68614;SDS011;55593;51.994;5.882;2022-12-07T00:07:38;17.48;;;10.88;;
68614;SDS011;55593;51.994;5.882;2022-12-07T00:10:07;16.17;;;9.88;;
68614;SDS011;55593;51.994;5.882;2022-12-07T00:12:37;17.02;;;11.27;;
68614;SDS011;55593;51.994;5.882;2022-12-07T00:15:06;15.85;;;9.68;;
68614;SDS011;55593;51.994;5.882;2022-12-07T00:17:36;14.02;;;9.18;;
68614;SDS011;55593;51.994;5.882;2022-12-07T00:20:06;17.38;;;9.07;;
68614;SDS011;55593;51.994;5.882;2022-12-07T00:22:38;15.18;;;9.15;;
68614;SDS011;55593;51.994;5.882;2022-12-07T00:25:08;13.73;;;7.25;;
68614;SDS011;55593;51.994;5.882;2022-12-07T00:27:37;15.82;;;8.10;;
68614;SDS011;55593;51.994;5.882;2022-12-07T00:30:06;15.27;;;8.27;;
68614;SDS011;55593;51.994;5.882;2022-12-07T00:32:36;13.85;;;8.23;;
68614;SDS011;55593;51.994;5.882;2022-12-07T00:35:06;20.17;;;7.57;;
68614;SDS011;55593;51.994;5.882;2022-12-07T00:37:38;13.27;;;7.30;;
68614;SDS011;55593;51.994;5.882;2022-12-07T00:40:07;14.23;;;7.82;;
68614;SDS011;55593;51.994;5.882;2022-12-07T00:42:37;11.15;;;7.30;;
68614;SDS011;55593;51.994;5.882;2022-12-07T00:45:07;12.27;;;7.60;;
68614;SDS011;55593;51.994;5.882;2022-12-07T00:47:37;15.85;;;7.68;;
68614;SDS011;55593;51.994;5.882;2022-12-07T00:50:09;16.27;;;7.45;;
68614;SDS011;55593;51.994;5.882;2022-12-07T00:52:38;12.65;;;7.68;;
68614;SDS011;55593;51.994;5.882;2022-12-07T00:55:08;14.38;;;8.35;;
68614;SDS011;55593;51.994;5.882;2022-12-07T00:57:37;13.50;;;7.95;;
68614;SDS011;55593;51.994;5.882;2022-12-07T01:00:06;15.70;;;8.07;;
68614;SDS011;55593;51.994;5.882;2022-12-07T01:02:36;19.85;;;8.05;;
68614;SDS011;55593;51.994;5.882;2022-12-07T01:05:08;12.57;;;7.32;;
68614;SDS011;55593;51.994;5.882;2022-12-07T01:07:38;12.82;;;8.10;;
68614;SDS011;55593;51.994;5.882;2022-12-07T01:10:07;17.15;;;8.82;;
68614;SDS011;55593;51.994;5.882;2022-12-07T01:12:37;19.52;;;9.32;;
68614;SDS011;55593;51.994;5.882;2022-12-07T01:15:06;19.10;;;8.90;;
68614;SDS011;55593;51.994;5.882;2022-12-07T01:17:36;16.52;;;8.95;;
68614;SDS011;55593;51.994;5.882;2022-12-07T01:20:06;13.02;;;8.63;;
68614;SDS011;55593;51.994;5.882;2022-12-07T01:22:39;18.40;;;8.77;;
68614;SDS011;55593;51.994;5.882;2022-12-07T01:25:09;12.38;;;8.25;;
68614;SDS011;55593;51.994;5.882;2022-12-07T01:27:39;18.73;;;8.73;;
68614;SDS011;55593;51.994;5.882;2022-12-07T01:30:09;12.02;;;8.45;;
68614;SDS011;55593;51.994;5.882;2022-12-07T01:32:39;17.02;;;8.15;;
68614;SDS011;55593;51.994;5.882;2022-12-07T01:35:11;14.52;;;8.27;;
68614;SDS011;55593;51.994;5.882;2022-12-07T01:37:40;15.23;;;8.80;;
68614;SDS011;55593;51.994;5.882;2022-12-07T01:40:10;18.27;;;9.02;;
68614;SDS011;55593;51.994;5.882;2022-12-07T01:42:40;13.68;;;8.50;;
68614;SDS011;55593;51.994;5.882;2022-12-07T01:48:11;15.48;;;8.55;;
68614;SDS011;55593;51.994;5.882;2022-12-07T01:50:45;15.07;;;9.07;;
68614;SDS011;55593;51.994;5.882;2022-12-07T01:53:16;14.55;;;8.18;;
68614;SDS011;55593;51.994;5.882;2022-12-07T01:55:46;13.90;;;8.43;;
68614;SDS011;55593;51.994;5.882;2022-12-07T01:58:16;14.52;;;8.30;;
68614;SDS011;55593;51.994;5.882;2022-12-07T02:00:45;21.45;;;9.45;;
68614;SDS011;55593;51.994;5.882;2022-12-07T02:03:16;15.27;;;8.55;;
68614;SDS011;55593;51.994;5.882;2022-12-07T02:05:51;20.63;;;8.40;;
68614;SDS011;55593;51.994;5.882;2022-12-07T02:08:21;21.13;;;8.35;;
68614;SDS011;55593;51.994;5.882;2022-12-07T02:10:51;17.00;;;8.15;;
68614;SDS011;55593;51.994;5.882;2022-12-07T02:13:25;17.55;;;8.27;;
68614;SDS011;55593;51.994;5.882;2022-12-07T02:15:59;22.00;;;8.88;;
68614;SDS011;55593;51.994;5.882;2022-12-07T02:18:43;22.92;;;8.57;;
68614;SDS011;55593;51.994;5.882;2022-12-07T02:21:23;21.38;;;8.73;;
68614;SDS011;55593;51.994;5.882;2022-12-07T02:24:11;12.90;;;8.00;;
68614;SDS011;55593;51.994;5.882;2022-12-07T02:29:42;20.45;;;8.30;;
68614;SDS011;55593;51.994;5.882;2022-12-07T02:32:15;14.68;;;7.50;;
68614;SDS011;55593;51.994;5.882;2022-12-07T02:34:48;14.00;;;9.25;;
68614;SDS011;55593;51.994;5.882;2022-12-07T02:37:21;14.18;;;6.93;;
68614;SDS011;55593;51.994;5.882;2022-12-07T02:39:57;13.90;;;7.60;;
68614;SDS011;55593;51.994;5.882;2022-12-07T02:42:30;20.30;;;7.55;;
68614;SDS011;55593;51.994;5.882;2022-12-07T02:45:05;13.15;;;6.22;;
68614;SDS011;55593;51.994;5.882;2022-12-07T02:47:36;14.70;;;6.47;;
68614;SDS011;55593;51.994;5.882;2022-12-07T02:50:06;22.13;;;8.63;;
68614;SDS011;55593;51.994;5.882;2022-12-07T02:52:36;19.83;;;7.07;;
68614;SDS011;55593;51.994;5.882;2022-12-07T02:55:06;12.52;;;7.07;;
68614;SDS011;55593;51.994;5.882;2022-12-07T02:57:42;17.88;;;8.18;;
68614;SDS011;55593;51.994;5.882;2022-12-07T03:00:23;15.07;;;6.97;;
68614;SDS011;55593;51.994;5.882;2022-12-07T03:02:53;22.92;;;9.00;;
68614;SDS011;55593;51.994;5.882;2022-12-07T03:05:37;18.35;;;7.13;;
68614;SDS011;55593;51.994;5.882;2022-12-07T03:08:19;16.10;;;6.63;;
68614;SDS011;55593;51.994;5.882;2022-12-07T03:10:53;17.65;;;6.80;;
68614;SDS011;55593;51.994;5.882;2022-12-07T03:13:26;18.48;;;7.43;;
68614;SDS011;55593;51.994;5.882;2022-12-07T03:16:02;17.10;;;6.85;;
68614;SDS011;55593;51.994;5.882;2022-12-07T03:18:35;14.20;;;6.38;;
68614;SDS011;55593;51.994;5.882;2022-12-07T03:21:08;16.23;;;5.63;;
68614;SDS011;55593;51.994;5.882;2022-12-07T03:23:39;13.85;;;6.10;;
68614;SDS011;55593;51.994;5.882;2022-12-07T03:26:10;16.25;;;6.72;;
68614;SDS011;55593;51.994;5.882;2022-12-07T03:28:42;12.13;;;6.03;;
68614;SDS011;55593;51.994;5.882;2022-12-07T03:31:17;19.02;;;6.70;;
68614;SDS011;55593;51.994;5.882;2022-12-07T03:33:49;13.25;;;5.70;;
68614;SDS011;55593;51.994;5.882;2022-12-07T03:36:23;16.20;;;6.00;;
68614;SDS011;55593;51.994;5.882;2022-12-07T03:38:56;16.45;;;7.05;;
68614;SDS011;55593;51.994;5.882;2022-12-07T03:41:28;14.60;;;5.13;;
68614;SDS011;55593;51.994;5.882;2022-12-07T03:43:59;15.70;;;5.65;;
68614;SDS011;55593;51.994;5.882;2022-12-07T03:46:32;13.63;;;5.05;;
68614;SDS011;55593;51.994;5.882;2022-12-07T03:49:07;15.15;;;4.40;;
68614;SDS011;55593;51.994;5.882;2022-12-07T03:51:39;21.75;;;6.03;;
68614;SDS011;55593;51.994;5.882;2022-12-07T03:54:13;8.52;;;4.20;;
68614;SDS011;55593;51.994;5.882;2022-12-07T03:56:46;9.63;;;4.82;;
68614;SDS011;55593;51.994;5.882;2022-12-07T03:59:15;14.25;;;5.30;;
68614;SDS011;55593;51.994;5.882;2022-12-07T04:01:51;11.32;;;4.43;;
68614;SDS011;55593;51.994;5.882;2022-12-07T04:06:50;13.40;;;4.60;;
68614;SDS011;55593;51.994;5.882;2022-12-07T04:09:19;10.90;;;3.85;;
68614;SDS011;55593;51.994;5.882;2022-12-07T04:11:49;13.57;;;4.75;;
68614;SDS011;55593;51.994;5.882;2022-12-07T04:14:18;14.93;;;5.35;;
68614;SDS011;55593;51.994;5.882;2022-12-07T04:16:51;16.05;;;4.88;;
68614;SDS011;55593;51.994;5.882;2022-12-07T04:19:22;10.80;;;4.07;;
68614;SDS011;55593;51.994;5.882;2022-12-07T04:21:53;13.90;;;4.10;;
68614;SDS011;55593;51.994;5.882;2022-12-07T04:24:22;15.88;;;6.18;;
68614;SDS011;55593;51.994;5.882;2022-12-07T04:26:52;12.32;;;3.90;;
68614;SDS011;55593;51.994;5.882;2022-12-07T04:29:21;19.60;;;4.30;;
68614;SDS011;55593;51.994;5.882;2022-12-07T04:31:53;14.40;;;4.75;;
68614;SDS011;55593;51.994;5.882;2022-12-07T04:34:22;16.15;;;4.60;;
68614;SDS011;55593;51.994;5.882;2022-12-07T04:36:51;13.00;;;4.80;;
68614;SDS011;55593;51.994;5.882;2022-12-07T04:39:21;18.60;;;7.53;;
68614;SDS011;55593;51.994;5.882;2022-12-07T04:41:52;9.27;;;3.80;;
68614;SDS011;55593;51.994;5.882;2022-12-07T04:44:21;15.27;;;4.18;;
68614;SDS011;55593;51.994;5.882;2022-12-07T04:46:53;16.30;;;4.18;;
68614;SDS011;55593;51.994;5.882;2022-12-07T04:49:23;12.35;;;4.18;;
68614;SDS011;55593;51.994;5.882;2022-12-07T04:51:53;15.82;;;4.90;;
68614;SDS011;55593;51.994;5.882;2022-12-07T04:54:22;9.43;;;4.60;;
68614;SDS011;55593;51.994;5.882;2022-12-07T04:56:51;8.90;;;4.18;;
68614;SDS011;55593;51.994;5.882;2022-12-07T04:59:20;7.43;;;3.40;;
68614;SDS011;55593;51.994;5.882;2022-12-07T05:01:50;14.23;;;3.22;;
68614;SDS011;55593;51.994;5.882;2022-12-07T05:04:21;20.77;;;6.43;;
68614;SDS011;55593;51.994;5.882;2022-12-07T05:06:50;8.80;;;3.60;;
68614;SDS011;55593;51.994;5.882;2022-12-07T05:09:20;15.60;;;4.25;;
68614;SDS011;55593;51.994;5.882;2022-12-07T05:11:49;10.13;;;3.40;;
68614;SDS011;55593;51.994;5.882;2022-12-07T05:14:19;11.07;;;3.78;;
68614;SDS011;55593;51.994;5.882;2022-12-07T05:16:49;11.50;;;3.70;;
68614;SDS011;55593;51.994;5.882;2022-12-07T05:19:22;12.15;;;3.42;;
68614;SDS011;55593;51.994;5.882;2022-12-07T05:21:51;9.73;;;3.60;;
68614;SDS011;55593;51.994;5.882;2022-12-07T05:24:21;15.63;;;3.25;;
68614;SDS011;55593;51.994;5.882;2022-12-07T05:26:50;12.30;;;3.55;;
68614;SDS011;55593;51.994;5.882;2022-12-07T05:29:19;14.15;;;3.47;;
68614;SDS011;55593;51.994;5.882;2022-12-07T05:31:48;10.50;;;2.85;;
68614;SDS011;55593;51.994;5.882;2022-12-07T05:34:20;8.68;;;3.78;;
68614;SDS011;55593;51.994;5.882;2022-12-07T05:36:49;10.30;;;3.45;;
68614;SDS011;55593;51.994;5.882;2022-12-07T05:39:18;13.40;;;3.05;;
68614;SDS011;55593;51.994;5.882;2022-12-07T05:41:48;9.40;;;2.97;;
68614;SDS011;55593;51.994;5.882;2022-12-07T05:44:29;19.60;;;4.57;;
68614;SDS011;55593;51.994;5.882;2022-12-07T05:46:59;13.70;;;3.28;;
68614;SDS011;55593;51.994;5.882;2022-12-07T05:49:30;11.63;;;3.13;;
68614;SDS011;55593;51.994;5.882;2022-12-07T05:52:00;11.20;;;3.78;;
68614;SDS011;55593;51.994;5.882;2022-12-07T05:54:29;13.77;;;2.72;;
68614;SDS011;55593;51.994;5.882;2022-12-07T05:56:58;15.10;;;3.20;;
68614;SDS011;55593;51.994;5.882;2022-12-07T05:59:27;11.88;;;3.10;;
68614;SDS011;55593;51.994;5.882;2022-12-07T06:01:55;8.25;;;2.83;;
68614;SDS011;55593;51.994;5.882;2022-12-07T06:04:26;11.85;;;2.90;;
68614;SDS011;55593;51.994;5.882;2022-12-07T06:06:59;7.57;;;2.80;;
68614;SDS011;55593;51.994;5.882;2022-12-07T06:09:28;6.70;;;3.05;;
68614;SDS011;55593;51.994;5.882;2022-12-07T06:11:58;14.77;;;3.25;;
68614;SDS011;55593;51.994;5.882;2022-12-07T06:14:40;12.20;;;2.78;;
68614;SDS011;55593;51.994;5.882;2022-12-07T06:17:09;12.23;;;3.67;;
68614;SDS011;55593;51.994;5.882;2022-12-07T06:19:39;10.30;;;3.08;;
68614;SDS011;55593;51.994;5.882;2022-12-07T06:22:11;12.48;;;3.20;;
68614;SDS011;55593;51.994;5.882;2022-12-07T06:24:41;8.10;;;2.80;;
68614;SDS011;55593;51.994;5.882;2022-12-07T06:27:11;9.50;;;3.95;;
68614;SDS011;55593;51.994;5.882;2022-12-07T06:29:40;10.10;;;2.50;;
68614;SDS011;55593;51.994;5.882;2022-12-07T06:32:09;9.23;;;2.47;;
68614;SDS011;55593;51.994;5.882;2022-12-07T06:34:38;15.05;;;2.70;;
68614;SDS011;55593;51.994;5.882;2022-12-07T06:37:07;9.48;;;3.00;;
68614;SDS011;55593;51.994;5.882;2022-12-07T06:39:39;9.73;;;2.80;;
68614;SDS011;55593;51.994;5.882;2022-12-07T06:42:08;9.07;;;2.88;;
68614;SDS011;55593;51.994;5.882;2022-12-07T06:44:38;15.52;;;3.28;;
68614;SDS011;55593;51.994;5.882;2022-12-07T06:47:07;16.30;;;2.63;;
68614;SDS011;55593;51.994;5.882;2022-12-07T06:49:37;10.88;;;3.28;;
68614;SDS011;55593;51.994;5.882;2022-12-07T06:52:06;11.75;;;3.13;;
68614;SDS011;55593;51.994;5.882;2022-12-07T06:54:38;12.10;;;3.10;;
68614;SDS011;55593;51.994;5.882;2022-12-07T06:57:07;9.88;;;2.80;;
68614;SDS011;55593;51.994;5.882;2022-12-07T06:59:36;13.77;;;4.45;;
68614;SDS011;55593;51.994;5.882;2022-12-07T07:02:05;8.00;;;2.67;;
68614;SDS011;55593;51.994;5.882;2022-12-07T07:04:34;22.33;;;3.03;;
68614;SDS011;55593;51.994;5.882;2022-12-07T07:07:03;13.32;;;3.20;;
68614;SDS011;55593;51.994;5.882;2022-12-07T07:09:32;18.58;;;3.33;;
68614;SDS011;55593;51.994;5.882;2022-12-07T07:12:04;8.55;;;2.80;;
68614;SDS011;55593;51.994;5.882;2022-12-07T07:14:33;7.82;;;2.60;;
68614;SDS011;55593;51.994;5.882;2022-12-07T07:17:03;10.02;;;3.22;;
68614;SDS011;55593;51.994;5.882;2022-12-07T07:19:32;12.73;;;2.45;;
68614;SDS011;55593;51.994;5.882;2022-12-07T07:22:02;15.82;;;3.25;;
68614;SDS011;55593;51.994;5.882;2022-12-07T07:24:31;9.75;;;2.60;;
68614;SDS011;55593;51.994;5.882;2022-12-07T07:27:00;7.43;;;2.97;;
68614;SDS011;55593;51.994;5.882;2022-12-07T07:29:32;11.18;;;2.85;;
68614;SDS011;55593;51.994;5.882;2022-12-07T07:32:02;9.55;;;2.95;;
68614;SDS011;55593;51.994;5.882;2022-12-07T07:34:31;10.95;;;2.70;;
68614;SDS011;55593;51.994;5.882;2022-12-07T07:37:00;9.02;;;2.83;;
68614;SDS011;55593;51.994;5.882;2022-12-07T07:39:30;15.32;;;3.08;;
68614;SDS011;55593;51.994;5.882;2022-12-07T07:41:59;16.98;;;3.17;;
68614;SDS011;55593;51.994;5.882;2022-12-07T07:44:34;8.77;;;2.35;;
68614;SDS011;55593;51.994;5.882;2022-12-07T07:47:03;17.38;;;3.35;;
68614;SDS011;55593;51.994;5.882;2022-12-07T07:49:32;11.07;;;2.75;;
68614;SDS011;55593;51.994;5.882;2022-12-07T07:52:02;12.45;;;2.95;;
68614;SDS011;55593;51.994;5.882;2022-12-07T07:54:31;14.82;;;3.35;;
68614;SDS011;55593;51.994;5.882;2022-12-07T07:57:00;7.85;;;2.72;;
68614;SDS011;55593;51.994;5.882;2022-12-07T07:59:29;12.07;;;3.47;;
68614;SDS011;55593;51.994;5.882;2022-12-07T08:02:01;14.90;;;3.35;;
68614;SDS011;55593;51.994;5.882;2022-12-07T08:04:30;9.30;;;3.10;;
68614;SDS011;55593;51.994;5.882;2022-12-07T08:06:59;12.15;;;2.83;;
68614;SDS011;55593;51.994;5.882;2022-12-07T08:09:28;5.30;;;2.67;;
68614;SDS011;55593;51.994;5.882;2022-12-07T08:11:57;14.18;;;2.97;;
68614;SDS011;55593;51.994;5.882;2022-12-07T08:14:27;12.43;;;2.95;;
68614;SDS011;55593;51.994;5.882;2022-12-07T08:16:56;8.13;;;2.35;;
68614;SDS011;55593;51.994;5.882;2022-12-07T08:19:28;11.15;;;2.97;;
68614;SDS011;55593;51.994;5.882;2022-12-07T08:21:57;14.50;;;3.00;;
68614;SDS011;55593;51.994;5.882;2022-12-07T08:24:27;15.68;;;4.00;;
68614;SDS011;55593;51.994;5.882;2022-12-07T08:26:56;11.23;;;2.78;;
68614;SDS011;55593;51.994;5.882;2022-12-07T08:29:25;13.93;;;3.38;;
68614;SDS011;55593;51.994;5.882;2022-12-07T08:31:54;14.35;;;2.92;;
68614;SDS011;55593;51.994;5.882;2022-12-07T08:34:23;11.82;;;3.65;;
68614;SDS011;55593;51.994;5.882;2022-12-07T08:36:55;5.88;;;3.20;;
68614;SDS011;55593;51.994;5.882;2022-12-07T08:39:24;19.42;;;6.15;;
68614;SDS011;55593;51.994;5.882;2022-12-07T08:41:53;13.43;;;3.63;;
68614;SDS011;55593;51.994;5.882;2022-12-07T08:44:22;17.50;;;3.42;;
68614;SDS011;55593;51.994;5.882;2022-12-07T08:46:52;13.50;;;3.75;;
68614;SDS011;55593;51.994;5.882;2022-12-07T08:49:24;13.60;;;3.22;;
68614;SDS011;55593;51.994;5.882;2022-12-07T08:51:59;13.80;;;3.45;;
68614;SDS011;55593;51.994;5.882;2022-12-07T08:54:28;12.50;;;3.53;;
68614;SDS011;55593;51.994;5.882;2022-12-07T08:56:57;12.55;;;3.55;;
68614;SDS011;55593;51.994;5.882;2022-12-07T08:59:26;17.45;;;3.67;;
68614;SDS011;55593;51.994;5.882;2022-12-07T09:01:57;12.43;;;3.45;;
68614;SDS011;55593;51.994;5.882;2022-12-07T09:04:26;11.20;;;3.40;;
68614;SDS011;55593;51.994;5.882;2022-12-07T09:06:55;9.27;;;3.53;;
68614;SDS011;55593;51.994;5.882;2022-12-07T09:09:27;13.00;;;4.28;;
68614;SDS011;55593;51.994;5.882;2022-12-07T09:11:56;18.15;;;3.50;;
68614;SDS011;55593;51.994;5.882;2022-12-07T09:14:26;10.75;;;3.20;;
68614;SDS011;55593;51.994;5.882;2022-12-07T09:16:56;12.55;;;3.05;;
68614;SDS011;55593;51.994;5.882;2022-12-07T09:19:34;8.90;;;3.25;;
68614;SDS011;55593;51.994;5.882;2022-12-07T09:22:05;10.90;;;3.42;;
68614;SDS011;55593;51.994;5.882;2022-12-07T09:24:35;9.70;;;2.97;;
68614;SDS011;55593;51.994;5.882;2022-12-07T09:27:04;14.82;;;3.35;;
68614;SDS011;55593;51.994;5.882;2022-12-07T09:29:34;18.02;;;3.55;;
68614;SDS011;55593;51.994;5.882;2022-12-07T09:32:03;13.18;;;3.60;;
68614;SDS011;55593;51.994;5.882;2022-12-07T09:34:33;14.90;;;2.97;;
68614;SDS011;55593;51.994;5.882;2022-12-07T09:37:02;19.05;;;2.95;;
68614;SDS011;55593;51.994;5.882;2022-12-07T09:39:37;12.18;;;3.38;;
68614;SDS011;55593;51.994;5.882;2022-12-07T09:42:06;14.38;;;3.33;;
68614;SDS011;55593;51.994;5.882;2022-12-07T09:44:39;17.85;;;3.05;;
68614;SDS011;55593;51.994;5.882;2022-12-07T09:47:09;13.57;;;3.60;;
68614;SDS011;55593;51.994;5.882;2022-12-07T09:49:39;10.02;;;2.75;;
68614;SDS011;55593;51.994;5.882;2022-12-07T09:52:17;5.28;;;2.15;;
68614;SDS011;55593;51.994;5.882;2022-12-07T09:54:49;13.15;;;2.65;;
68614;SDS011;55593;51.994;5.882;2022-12-07T09:57:20;11.18;;;2.83;;
68614;SDS011;55593;51.994;5.882;2022-12-07T09:59:54;12.15;;;2.65;;
68614;SDS011;55593;51.994;5.882;2022-12-07T10:02:25;9.18;;;2.80;;
68614;SDS011;55593;51.994;5.882;2022-12-07T10:05:00;11.05;;;3.45;;
68614;SDS011;55593;51.994;5.882;2022-12-07T10:07:30;12.20;;;3.58;;
68614;SDS011;55593;51.994;5.882;2022-12-07T10:10:02;10.35;;;3.58;;
68614;SDS011;55593;51.994;5.882;2022-12-07T10:12:35;21.45;;;3.17;;
68614;SDS011;55593;51.994;5.882;2022-12-07T10:15:21;12.30;;;3.58;;
68614;SDS011;55593;51.994;5.882;2022-12-07T10:17:51;11.80;;;2.90;;
68614;SDS011;55593;51.994;5.882;2022-12-07T10:20:22;12.00;;;3.55;;
68614;SDS011;55593;51.994;5.882;2022-12-07T10:22:57;11.55;;;3.35;;
68614;SDS011;55593;51.994;5.882;2022-12-07T10:25:32;18.77;;;3.15;;
68614;SDS011;55593;51.994;5.882;2022-12-07T10:28:12;17.67;;;3.17;;
68614;SDS011;55593;51.994;5.882;2022-12-07T10:30:47;16.70;;;2.75;;
68614;SDS011;55593;51.994;5.882;2022-12-07T10:33:28;7.93;;;3.08;;
68614;SDS011;55593;51.994;5.882;2022-12-07T10:36:18;8.95;;;2.50;;
68614;SDS011;55593;51.994;5.882;2022-12-07T10:38:50;8.13;;;2.30;;
68614;SDS011;55593;51.994;5.882;2022-12-07T10:41:23;9.15;;;2.90;;
68614;SDS011;55593;51.994;5.882;2022-12-07T10:43:52;14.05;;;3.83;;
68614;SDS011;55593;51.994;5.882;2022-12-07T10:49:29;9.43;;;2.58;;
68614;SDS011;55593;51.994;5.882;2022-12-07T10:52:10;8.07;;;2.72;;
68614;SDS011;55593;51.994;5.882;2022-12-07T10:54:44;13.07;;;2.28;;
68614;SDS011;55593;51.994;5.882;2022-12-07T10:57:25;12.77;;;3.03;;
68614;SDS011;55593;51.994;5.882;2022-12-07T11:00:04;9.40;;;2.22;;
68614;SDS011;55593;51.994;5.882;2022-12-07T11:02:43;12.80;;;3.22;;
68614;SDS011;55593;51.994;5.882;2022-12-07T11:05:32;9.07;;;2.60;;
68614;SDS011;55593;51.994;5.882;2022-12-07T11:08:11;11.68;;;2.67;;
68614;SDS011;55593;51.994;5.882;2022-12-07T11:10:48;10.15;;;2.30;;
68614;SDS011;55593;51.994;5.882;2022-12-07T11:13:28;11.98;;;2.95;;
68614;SDS011;55593;51.994;5.882;2022-12-07T11:16:08;7.07;;;2.40;;
68614;SDS011;55593;51.994;5.882;2022-12-07T11:18:53;10.10;;;2.25;;
68614;SDS011;55593;51.994;5.882;2022-12-07T11:21:30;8.75;;;2.80;;
68614;SDS011;55593;51.994;5.882;2022-12-07T11:24:03;10.52;;;2.70;;
68614;SDS011;55593;51.994;5.882;2022-12-07T11:26:40;8.30;;;2.28;;
68614;SDS011;55593;51.994;5.882;2022-12-07T11:29:21;11.70;;;2.80;;
68614;SDS011;55593;51.994;5.882;2022-12-07T11:32:11;8.77;;;2.50;;
68614;SDS011;55593;51.994;5.882;2022-12-07T11:34:46;5.47;;;1.80;;
68614;SDS011;55593;51.994;5.882;2022-12-07T11:37:25;9.48;;;2.83;;
68614;SDS011;55593;51.994;5.882;2022-12-07T11:39:59;12.73;;;2.75;;
68614;SDS011;55593;51.994;5.882;2022-12-07T11:42:30;20.55;;;4.13;;
68614;SDS011;55593;51.994;5.882;2022-12-07T11:45:10;12.60;;;2.45;;
68614;SDS011;55593;51.994;5.882;2022-12-07T11:47:45;17.60;;;2.60;;
68614;SDS011;55593;51.994;5.882;2022-12-07T11:50:23;11.52;;;2.63;;
68614;SDS011;55593;51.994;5.882;2022-12-07T11:52:56;6.10;;;2.20;;
68614;SDS011;55593;51.994;5.882;2022-12-07T11:55:29;9.50;;;1.88;;
68614;SDS011;55593;51.994;5.882;2022-12-07T11:58:14;6.18;;;1.80;;
68614;SDS011;55593;51.994;5.882;2022-12-07T12:00:53;10.90;;;2.10;;
68614;SDS011;55593;51.994;5.882;2022-12-07T12:03:35;8.10;;;1.85;;
68614;SDS011;55593;51.994;5.882;2022-12-07T12:06:07;7.18;;;1.83;;
68614;SDS011;55593;51.994;5.882;2022-12-07T12:08:38;10.68;;;2.85;;
68614;SDS011;55593;51.994;5.882;2022-12-07T12:11:10;16.05;;;2.35;;
68614;SDS011;55593;51.994;5.882;2022-12-07T12:13:50;10.85;;;2.85;;
68614;SDS011;55593;51.994;5.882;2022-12-07T12:16:36;7.45;;;2.22;;
68614;SDS011;55593;51.994;5.882;2022-12-07T12:19:22;7.43;;;2.20;;
68614;SDS011;55593;51.994;5.882;2022-12-07T12:21:54;8.98;;;2.20;;
68614;SDS011;55593;51.994;5.882;2022-12-07T12:24:27;12.15;;;2.10;;
68614;SDS011;55593;51.994;5.882;2022-12-07T12:27:03;7.13;;;1.92;;
68614;SDS011;55593;51.994;5.882;2022-12-07T12:29:35;10.48;;;2.78;;
68614;SDS011;55593;51.994;5.882;2022-12-07T12:32:15;13.48;;;2.50;;
68614;SDS011;55593;51.994;5.882;2022-12-07T12:35:02;9.15;;;2.70;;
68614;SDS011;55593;51.994;5.882;2022-12-07T12:37:49;8.25;;;2.67;;
68614;SDS011;55593;51.994;5.882;2022-12-07T13:07:13;15.15;;;3.45;;
68614;SDS011;55593;51.994;5.882;2022-12-07T13:10:03;8.63;;;2.25;;
68614;SDS011;55593;51.994;5.882;2022-12-07T13:12:36;9.68;;;3.45;;
68614;SDS011;55593;51.994;5.882;2022-12-07T13:15:19;7.68;;;2.17;;
68614;SDS011;55593;51.994;5.882;2022-12-07T13:18:02;7.88;;;2.10;;
68614;SDS011;55593;51.994;5.882;2022-12-07T13:23:27;9.75;;;2.42;;
68614;SDS011;55593;51.994;5.882;2022-12-07T13:26:04;8.95;;;2.20;;
68614;SDS011;55593;51.994;5.882;2022-12-07T13:28:42;11.27;;;2.50;;
68614;SDS011;55593;51.994;5.882;2022-12-07T13:34:05;7.88;;;2.28;;
68614;SDS011;55593;51.994;5.882;2022-12-07T13:36:54;7.43;;;1.90;;
68614;SDS011;55593;51.994;5.882;2022-12-07T13:39:25;8.65;;;2.35;;
68614;SDS011;55593;51.994;5.882;2022-12-07T13:41:55;13.70;;;2.80;;
68614;SDS011;55593;51.994;5.882;2022-12-07T13:44:27;8.50;;;2.22;;
68614;SDS011;55593;51.994;5.882;2022-12-07T13:47:03;11.05;;;2.58;;
68614;SDS011;55593;51.994;5.882;2022-12-07T13:49:37;7.13;;;2.42;;
68614;SDS011;55593;51.994;5.882;2022-12-07T13:52:12;12.10;;;2.17;;
68614;SDS011;55593;51.994;5.882;2022-12-07T13:54:45;14.10;;;3.25;;
68614;SDS011;55593;51.994;5.882;2022-12-07T13:57:15;9.85;;;2.22;;
68614;SDS011;55593;51.994;5.882;2022-12-07T13:59:44;11.80;;;3.30;;
68614;SDS011;55593;51.994;5.882;2022-12-07T14:02:24;8.43;;;2.60;;
68614;SDS011;55593;51.994;5.882;2022-12-07T14:05:06;10.30;;;2.03;;
68614;SDS011;55593;51.994;5.882;2022-12-07T14:07:47;8.38;;;2.60;;
68614;SDS011;55593;51.994;5.882;2022-12-07T14:10:24;11.48;;;2.65;;
68614;SDS011;55593;51.994;5.882;2022-12-07T14:12:54;9.50;;;1.92;;
68614;SDS011;55593;51.994;5.882;2022-12-07T14:15:25;13.30;;;1.90;;
68614;SDS011;55593;51.994;5.882;2022-12-07T14:17:59;14.65;;;2.67;;
68614;SDS011;55593;51.994;5.882;2022-12-07T14:20:31;11.10;;;1.85;;
68614;SDS011;55593;51.994;5.882;2022-12-07T14:23:02;17.67;;;1.90;;
68614;SDS011;55593;51.994;5.882;2022-12-07T14:25:46;8.82;;;2.45;;
68614;SDS011;55593;51.994;5.882;2022-12-07T14:28:27;10.13;;;1.70;;
68614;SDS011;55593;51.994;5.882;2022-12-07T14:30:57;5.35;;;1.63;;
68614;SDS011;55593;51.994;5.882;2022-12-07T14:33:29;5.00;;;1.35;;
68614;SDS011;55593;51.994;5.882;2022-12-07T14:35:58;8.30;;;2.05;;
68614;SDS011;55593;51.994;5.882;2022-12-07T14:38:27;8.25;;;1.55;;
68614;SDS011;55593;51.994;5.882;2022-12-07T14:40:56;8.82;;;1.77;;
68614;SDS011;55593;51.994;5.882;2022-12-07T14:43:46;10.68;;;1.90;;
68614;SDS011;55593;51.994;5.882;2022-12-07T14:46:15;8.55;;;2.05;;
68614;SDS011;55593;51.994;5.882;2022-12-07T14:48:47;11.23;;;1.95;;
68614;SDS011;55593;51.994;5.882;2022-12-07T14:51:16;7.25;;;2.88;;
68614;SDS011;55593;51.994;5.882;2022-12-07T14:53:46;12.18;;;2.60;;
68614;SDS011;55593;51.994;5.882;2022-12-07T14:56:17;5.38;;;1.70;;
68614;SDS011;55593;51.994;5.882;2022-12-07T14:58:46;10.70;;;2.10;;
68614;SDS011;55593;51.994;5.882;2022-12-07T15:01:16;6.13;;;1.77;;
68614;SDS011;55593;51.994;5.882;2022-12-07T15:03:48;20.15;;;2.35;;
68614;SDS011;55593;51.994;5.882;2022-12-07T15:06:19;12.52;;;3.85;;
68614;SDS011;55593;51.994;5.882;2022-12-07T15:08:48;6.03;;;1.70;;
68614;SDS011;55593;51.994;5.882;2022-12-07T15:11:17;10.90;;;2.05;;
68614;SDS011;55593;51.994;5.882;2022-12-07T15:13:47;5.05;;;1.90;;
68614;SDS011;55593;51.994;5.882;2022-12-07T15:16:28;9.00;;;1.63;;
68614;SDS011;55593;51.994;5.882;2022-12-07T15:19:00;6.55;;;1.73;;
68614;SDS011;55593;51.994;5.882;2022-12-07T15:21:30;5.95;;;2.25;;
68614;SDS011;55593;51.994;5.882;2022-12-07T15:23:59;6.65;;;3.00;;
68614;SDS011;55593;51.994;5.882;2022-12-07T15:26:28;8.05;;;3.47;;
68614;SDS011;55593;51.994;5.882;2022-12-07T15:28:58;10.82;;;2.85;;
68614;SDS011;55593;51.994;5.882;2022-12-07T15:31:27;7.38;;;3.53;;
68614;SDS011;55593;51.994;5.882;2022-12-07T15:33:56;8.80;;;2.72;;
68614;SDS011;55593;51.994;5.882;2022-12-07T15:36:29;9.05;;;2.63;;
68614;SDS011;55593;51.994;5.882;2022-12-07T15:38:59;9.32;;;2.65;;
68614;SDS011;55593;51.994;5.882;2022-12-07T15:41:29;7.72;;;2.85;;
68614;SDS011;55593;51.994;5.882;2022-12-07T15:43:58;12.40;;;3.00;;
68614;SDS011;55593;51.994;5.882;2022-12-07T15:46:40;7.38;;;2.80;;
68614;SDS011;55593;51.994;5.882;2022-12-07T15:49:17;7.13;;;2.50;;
68614;SDS011;55593;51.994;5.882;2022-12-07T15:51:46;6.90;;;2.20;;